Terminal Aerodrome Forecast
Issued by NWS

Home | Current Version | Previous Version | Text Only | Print | Product List | Glossary On
Versions: 1 2 3 4 5 6 7 8 9 10 11 12
054
FTUS45 KABQ 081732
TAFLVS
TAF
KLVS 081732Z 0818/0918 15008KT P6SM FEW250
     FM090200 27006KT P6SM SKC
     FM091100 33005KT P6SM SKC=

USA.gov is the U.S. government's official web portal to all federal, state and local government web resources and services.